Time;durP1;ratioP1;P1;durP2;ratioP2;P2;SDS_P1;SDS_P2;PMS_P1;PMS_P2;Temp;Humidity;BMP_temperature;BMP_pressure;BME280_temperature;BME280_humidity;BME280_pressure;Samples;Min_cycle;Max_cycle;Signal;HPM_P1;HPM_P2
2022/07/19 00:02:20;;;;;;;;;;;;;;;22.21;39.49;100450.00;4461347;32;20028;-79
2022/07/19 00:04:49;;;;;;;;;;;;;;;22.40;39.11;100449.56;4447703;32;19996;-79
2022/07/19 00:07:16;;;;;;;;;;;;;;;22.31;39.78;100449.81;4456681;32;20004;-79
2022/07/19 00:09:43;;;;;;;;;;;;;;;22.25;39.65;100456.94;4449512;32;20060;-79
2022/07/19 00:12:13;;;;;;;;;;;;;;;22.24;39.68;100447.31;4446636;32;20431;-79
2022/07/19 00:14:40;;;;;;;;;;;;;;;22.38;38.03;100451.41;4432701;32;20004;-79
2022/07/19 00:17:07;;;;;;;;;;;;;;;22.42;38.56;100455.69;4446774;32;20400;-79
2022/07/19 00:19:34;;;;;;;;;;;;;;;22.43;38.90;100450.41;4461183;32;19965;-79
2022/07/19 00:22:01;;;;;;;;;;;;;;;22.37;39.02;100458.44;4462248;32;19980;-79
2022/07/19 00:24:28;;;;;;;;;;;;;;;22.28;38.66;100454.25;4461811;32;20283;-79
2022/07/19 00:26:55;;;;;;;;;;;;;;;22.32;38.94;100451.53;4462219;32;20393;-79
2022/07/19 00:29:21;;;;;;;;;;;;;;;22.32;38.27;100452.41;4447406;32;19977;-80
2022/07/19 00:31:49;;;;;;;;;;;;;;;22.24;38.46;100449.94;4461935;32;20044;-80
2022/07/19 00:34:17;;;;;;;;;;;;;;;22.20;38.68;100448.25;4447466;32;19993;-78
2022/07/19 00:36:44;;;;;;;;;;;;;;;22.15;39.62;100454.53;4459160;32;20383;-78
2022/07/19 00:39:11;;;;;;;;;;;;;;;22.08;40.19;100452.91;4458144;32;20028;-79
2022/07/19 00:41:39;;;;;;;;;;;;;;;22.25;39.46;100451.66;4461567;32;20019;-79
2022/07/19 00:44:06;;;;;;;;;;;;;;;22.17;40.22;100452.72;4429567;32;20001;-79
2022/07/19 00:46:33;;;;;;;;;;;;;;;22.14;39.97;100458.91;4434985;32;19981;-79
2022/07/19 00:49:00;;;;;;;;;;;;;;;22.08;39.81;100459.06;4445730;32;20635;-79
2022/07/19 00:51:28;;;;;;;;;;;;;;;21.94;40.51;100456.69;4446080;32;19986;-78
2022/07/19 00:53:55;;;;;;;;;;;;;;;21.90;41.10;100459.44;4446100;32;20032;-78
2022/07/19 00:56:24;;;;;;;;;;;;;;;21.84;41.04;100460.44;4454193;32;19992;-79
2022/07/19 00:58:51;;;;;;;;;;;;;;;21.92;39.92;100453.25;4432590;32;19983;-79
2022/07/19 01:01:17;;;;;;;;;;;;;;;21.78;40.55;100458.78;4443720;32;19989;-79
2022/07/19 01:03:45;;;;;;;;;;;;;;;21.85;40.23;100461.28;4447848;32;20378;-79
2022/07/19 01:06:11;;;;;;;;;;;;;;;21.85;40.37;100456.03;4420785;32;20031;-79
2022/07/19 01:08:38;;;;;;;;;;;;;;;21.84;39.74;100455.16;4434908;32;19997;-79
2022/07/19 01:11:06;;;;;;;;;;;;;;;21.72;40.64;100451.00;4431356;32;19990;-79
2022/07/19 01:13:33;;;;;;;;;;;;;;;21.82;40.54;100452.56;4410373;32;20003;-79
2022/07/19 01:16:00;;;;;;;;;;;;;;;21.85;40.65;100450.75;4431616;32;19995;-79
2022/07/19 01:18:27;;;;;;;;;;;;;;;21.67;40.51;100447.59;4447819;32;20861;-79
2022/07/19 01:20:54;;;;;;;;;;;;;;;21.39;41.47;100446.38;4441075;32;20015;-79
2022/07/19 01:23:21;;;;;;;;;;;;;;;21.40;41.75;100458.66;4431723;32;19977;-79
2022/07/19 01:25:47;;;;;;;;;;;;;;;21.29;41.70;100451.78;4432386;32;19996;-79
2022/07/19 01:28:14;;;;;;;;;;;;;;;21.50;40.96;100455.81;4433865;32;19974;-79
2022/07/19 01:30:41;;;;;;;;;;;;;;;21.21;42.08;100448.41;4438911;32;19989;-79
2022/07/19 01:33:08;;;;;;;;;;;;;;;21.25;41.28;100452.75;4432252;32;19988;-79
2022/07/19 01:35:35;;;;;;;;;;;;;;;21.44;40.33;100449.78;4431962;32;19977;-78
2022/07/19 01:38:02;;;;;;;;;;;;;;;21.34;40.57;100449.91;4436629;32;19977;-79
2022/07/19 01:40:29;;;;;;;;;;;;;;;21.27;41.49;100443.03;4420469;32;20313;-78
2022/07/19 01:42:56;;;;;;;;;;;;;;;21.17;42.04;100444.09;4445910;32;19990;-79
2022/07/19 01:45:22;;;;;;;;;;;;;;;21.33;41.03;100440.28;4440024;32;20323;-78
2022/07/19 01:47:49;;;;;;;;;;;;;;;21.33;40.93;100431.53;4431787;32;20000;-79
2022/07/19 01:50:17;;;;;;;;;;;;;;;21.31;41.37;100436.84;4432951;32;20009;-78
2022/07/19 01:52:44;;;;;;;;;;;;;;;21.22;41.84;100437.00;4432307;32;19981;-79
2022/07/19 01:55:19;;;;;;;;;;;;;;;21.25;41.71;100428.16;4110970;32;10003981;-79
2022/07/19 01:57:46;;;;;;;;;;;;;;;21.10;41.68;100435.44;4428178;32;20018;-79
2022/07/19 02:00:13;;;;;;;;;;;;;;;21.11;41.65;100436.31;4431975;32;19987;-79
2022/07/19 02:02:41;;;;;;;;;;;;;;;20.95;42.48;100434.84;4431607;32;20035;-78
2022/07/19 02:05:08;;;;;;;;;;;;;;;20.98;42.48;100434.78;4432258;32;19995;-79
2022/07/19 02:07:37;;;;;;;;;;;;;;;20.98;42.51;100435.66;4432131;32;20003;-78
2022/07/19 02:10:07;;;;;;;;;;;;;;;21.07;41.78;100439.91;4431717;32;19961;-78
2022/07/19 02:12:33;;;;;;;;;;;;;;;21.15;40.96;100438.00;4432622;32;19969;-78
2022/07/19 02:15:00;;;;;;;;;;;;;;;20.88;42.48;100440.22;4417579;32;20025;-78
2022/07/19 02:17:27;;;;;;;;;;;;;;;20.84;41.53;100446.44;4432198;32;19982;-78
2022/07/19 02:19:54;;;;;;;;;;;;;;;21.09;40.93;100444.25;4428910;32;19995;-79
2022/07/19 02:22:21;;;;;;;;;;;;;;;21.08;40.92;100444.25;4426379;32;20362;-78
2022/07/19 02:24:48;;;;;;;;;;;;;;;21.31;41.66;100451.75;4422619;32;19982;-79
2022/07/19 02:27:15;;;;;;;;;;;;;;;20.97;42.27;100448.84;4416582;32;20027;-79
2022/07/19 02:29:42;;;;;;;;;;;;;;;21.18;41.18;100448.47;4406817;32;19986;-79
2022/07/19 02:32:09;;;;;;;;;;;;;;;20.97;41.53;100448.84;4421037;32;20042;-79
2022/07/19 02:34:36;;;;;;;;;;;;;;;20.88;42.00;100449.88;4416411;32;20032;-79
2022/07/19 02:37:04;;;;;;;;;;;;;;;21.00;40.56;100447.03;4419608;32;19992;-79
2022/07/19 02:39:31;;;;;;;;;;;;;;;21.11;40.62;100452.09;4423339;32;20024;-78
2022/07/19 02:41:58;;;;;;;;;;;;;;;21.07;41.15;100448.66;4416310;32;20045;-79
2022/07/19 02:44:24;;;;;;;;;;;;;;;21.06;41.32;100448.72;4403558;32;19986;-79
2022/07/19 02:46:51;;;;;;;;;;;;;;;20.93;42.51;100452.41;4422972;32;19970;-79
2022/07/19 02:49:20;;;;;;;;;;;;;;;20.93;42.69;100452.41;4416351;32;19966;-79
2022/07/19 02:51:47;;;;;;;;;;;;;;;20.94;42.68;100454.16;4402668;32;20405;-79
2022/07/19 02:54:14;;;;;;;;;;;;;;;20.87;42.32;100456.91;4416436;32;19981;-79
2022/07/19 02:56:41;;;;;;;;;;;;;;;20.87;42.00;100453.41;4442867;32;19985;-79
2022/07/19 02:59:08;;;;;;;;;;;;;;;20.69;42.63;100454.56;4464054;32;19998;-79
2022/07/19 03:01:35;;;;;;;;;;;;;;;20.77;42.49;100447.44;4478485;32;19978;-79
2022/07/19 03:04:02;;;;;;;;;;;;;;;20.61;42.90;100451.16;4464288;32;19996;-79
2022/07/19 03:06:29;;;;;;;;;;;;;;;20.36;43.47;100456.78;4468113;32;20000;-79
2022/07/19 03:08:56;;;;;;;;;;;;;;;20.37;43.12;100458.50;4477934;32;19981;-79
2022/07/19 03:11:23;;;;;;;;;;;;;;;20.52;42.12;100454.81;4475606;32;20021;-79
2022/07/19 03:13:50;;;;;;;;;;;;;;;20.59;42.30;100455.59;4452581;32;20037;-79
2022/07/19 03:16:17;;;;;;;;;;;;;;;20.53;43.10;100463.56;4144944;32;10004307;-78
2022/07/19 03:18:44;;;;;;;;;;;;;;;20.26;44.06;100455.16;4432152;32;20031;-79
2022/07/19 03:21:11;;;;;;;;;;;;;;;20.41;43.48;100451.44;4124504;32;10003881;-79
2022/07/19 03:23:38;;;;;;;;;;;;;;;20.37;43.41;100453.25;4430178;32;19990;-78
2022/07/19 03:26:05;;;;;;;;;;;;;;;20.33;43.21;100462.06;4453898;32;19994;-79
2022/07/19 03:28:32;;;;;;;;;;;;;;;20.54;42.20;100454.78;4462400;32;19972;-79
2022/07/19 03:30:59;;;;;;;;;;;;;;;20.31;43.91;100462.97;4456084;32;20365;-79
2022/07/19 03:33:26;;;;;;;;;;;;;;;20.20;44.57;100465.75;4452252;32;19976;-79
2022/07/19 03:35:53;;;;;;;;;;;;;;;20.15;44.76;100467.56;4462765;32;20375;-79
2022/07/19 03:38:20;;;;;;;;;;;;;;;20.35;43.99;100470.78;4466035;31;20090;-78
2022/07/19 03:40:47;;;;;;;;;;;;;;;20.41;43.97;100475.97;4453302;32;20228;-79
2022/07/19 03:43:15;;;;;;;;;;;;;;;20.47;44.02;100479.41;4448335;32;19983;-78
2022/07/19 03:45:45;;;;;;;;;;;;;;;20.37;43.40;100474.28;4448478;32;19981;-79
2022/07/19 03:48:12;;;;;;;;;;;;;;;20.37;43.75;100484.78;4451685;32;19972;-78
2022/07/19 03:50:39;;;;;;;;;;;;;;;20.47;42.63;100484.66;4430308;32;20313;-78
2022/07/19 03:53:06;;;;;;;;;;;;;;;20.51;43.91;100487.25;4425017;32;20051;-79
2022/07/19 03:55:33;;;;;;;;;;;;;;;20.49;44.18;100488.16;4442109;32;20012;-79
2022/07/19 03:58:00;;;;;;;;;;;;;;;20.57;43.89;100486.31;4469261;32;19976;-79
2022/07/19 04:00:27;;;;;;;;;;;;;;;20.73;42.91;100492.22;4464151;32;19977;-79
2022/07/19 04:02:54;;;;;;;;;;;;;;;20.53;44.24;100489.88;4466440;32;20313;-79
2022/07/19 04:05:21;;;;;;;;;;;;;;;20.45;44.57;100492.56;4466627;32;19995;-79
2022/07/19 04:07:48;;;;;;;;;;;;;;;20.63;44.65;100496.75;4470819;32;19973;-79
2022/07/19 04:10:15;;;;;;;;;;;;;;;20.55;45.40;100498.59;4462092;32;19980;-79
2022/07/19 04:12:41;;;;;;;;;;;;;;;20.70;44.56;100501.00;4466330;32;19989;-80
2022/07/19 04:15:09;;;;;;;;;;;;;;;20.90;41.96;100503.38;4452221;32;21306;-80
2022/07/19 04:17:36;;;;;;;;;;;;;;;20.78;43.97;100496.50;4462550;32;19973;-79
2022/07/19 04:20:04;;;;;;;;;;;;;;;20.89;43.63;100499.84;4463082;32;20032;-79
2022/07/19 04:22:31;;;;;;;;;;;;;;;20.99;44.27;100494.44;4469112;32;19999;-79
2022/07/19 04:25:02;;;;;;;;;;;;;;;21.08;41.56;100504.81;4462433;32;19992;-79
2022/07/19 04:27:30;;;;;;;;;;;;;;;21.05;43.39;100504.84;4435587;32;20029;-79
2022/07/19 04:29:57;;;;;;;;;;;;;;;21.06;42.79;100501.34;4129499;32;10008252;-79
2022/07/19 04:32:24;;;;;;;;;;;;;;;21.15;41.84;100503.81;4470359;32;19996;-80
2022/07/19 04:34:50;;;;;;;;;;;;;;;21.15;42.84;100511.69;4466874;32;20028;-78
2022/07/19 04:37:17;;;;;;;;;;;;;;;21.23;43.40;100504.56;4462575;32;20008;-78
2022/07/19 04:39:44;;;;;;;;;;;;;;;21.25;43.44;100513.31;4468856;32;20026;-82
2022/07/19 04:42:11;;;;;;;;;;;;;;;21.30;42.49;100516.72;4464480;32;20392;-83
2022/07/19 04:44:38;;;;;;;;;;;;;;;21.41;42.02;100507.78;4452858;32;20043;-85
2022/07/19 04:47:05;;;;;;;;;;;;;;;21.41;41.02;100505.16;4462128;32;19993;-83
2022/07/19 04:49:32;;;;;;;;;;;;;;;21.59;42.25;100504.81;4461746;32;19981;-84
2022/07/19 04:51:59;;;;;;;;;;;;;;;21.55;41.02;100505.78;4466188;32;19981;-83
2022/07/19 04:54:26;;;;;;;;;;;;;;;21.56;40.60;100503.12;4471168;32;19968;-83
2022/07/19 04:56:53;;;;;;;;;;;;;;;21.67;41.35;100505.56;4462367;32;19976;-85
2022/07/19 04:59:21;;;;;;;;;;;;;;;21.73;41.60;100497.53;4477257;32;19992;-84
2022/07/19 05:01:48;;;;;;;;;;;;;;;21.82;39.80;100500.00;4457933;32;19994;-84
2022/07/19 05:04:20;;;;;;;;;;;;;;;21.93;40.33;100502.41;4464481;32;19977;-83
2022/07/19 05:06:47;;;;;;;;;;;;;;;22.05;39.96;100496.03;4447674;32;20675;-83
2022/07/19 05:09:15;;;;;;;;;;;;;;;21.97;40.21;100498.81;4467080;32;20304;-83
2022/07/19 05:11:44;;;;;;;;;;;;;;;22.16;40.54;100499.34;4471183;32;19989;-83
2022/07/19 05:14:11;;;;;;;;;;;;;;;22.32;40.77;100499.03;4465676;32;19973;-83
2022/07/19 05:16:38;;;;;;;;;;;;;;;22.37;41.06;100502.44;4461357;32;20034;-83
2022/07/19 05:19:04;;;;;;;;;;;;;;;22.44;41.09;100498.75;4465369;32;20347;-82
2022/07/19 05:21:31;;;;;;;;;;;;;;;22.50;40.99;100501.25;4455398;32;19996;-83
2022/07/19 05:23:59;;;;;;;;;;;;;;;22.60;40.36;100500.16;4473355;32;20003;-83
2022/07/19 05:26:27;;;;;;;;;;;;;;;22.61;40.00;100491.31;4476584;32;19977;-83
2022/07/19 05:28:56;;;;;;;;;;;;;;;22.65;39.66;100498.25;4470593;32;19988;-83
2022/07/19 05:31:23;;;;;;;;;;;;;;;22.70;39.63;100495.53;4461329;32;20776;-84
2022/07/19 05:33:50;;;;;;;;;;;;;;;22.78;39.63;100497.97;4446950;32;19988;-83
2022/07/19 05:36:17;;;;;;;;;;;;;;;22.86;39.39;100496.03;4449660;31;19973;-83
2022/07/19 05:38:44;;;;;;;;;;;;;;;22.98;39.02;100490.47;4455023;32;20344;-83
2022/07/19 05:41:12;;;;;;;;;;;;;;;23.04;38.53;100490.34;4461313;32;20005;-83
2022/07/19 05:43:39;;;;;;;;;;;;;;;22.94;37.84;100494.97;4455548;32;19969;-81
2022/07/19 05:46:06;;;;;;;;;;;;;;;23.00;37.36;100488.66;4466222;32;19985;-82
2022/07/19 05:48:33;;;;;;;;;;;;;;;23.15;37.33;100488.28;4462719;32;19981;-81
2022/07/19 05:51:00;;;;;;;;;;;;;;;23.20;37.89;100491.69;4448343;32;20032;-81
2022/07/19 05:53:27;;;;;;;;;;;;;;;23.17;38.47;100491.75;4463531;32;19985;-81
2022/07/19 05:55:54;;;;;;;;;;;;;;;23.41;38.05;100490.25;4476945;32;20007;-82
2022/07/19 05:58:21;;;;;;;;;;;;;;;23.36;38.01;100491.28;4456088;32;20389;-81
2022/07/19 06:03:36;;;;;;;;;;;;;;;23.52;37.26;100486.47;4455303;32;19980;-83
2022/07/19 06:06:29;;;;;;;;;;;;;;;23.56;37.58;100494.25;4427527;32;19984;-82
2022/07/19 06:08:56;;;;;;;;;;;;;;;23.74;36.95;100492.03;4464844;32;19981;-83
2022/07/19 06:11:23;;;;;;;;;;;;;;;23.71;35.55;100486.84;4470108;32;20321;-83
2022/07/19 06:13:50;;;;;;;;;;;;;;;23.97;35.32;100487.00;4451651;32;20067;-83
2022/07/19 06:16:18;;;;;;;;;;;;;;;23.89;36.05;100492.47;4445203;32;19989;-83
2022/07/19 06:18:46;;;;;;;;;;;;;;;24.05;36.46;100487.63;4463061;32;20003;-83
2022/07/19 06:21:14;;;;;;;;;;;;;;;24.22;35.12;100489.78;4462997;32;19997;-83
2022/07/19 06:23:41;;;;;;;;;;;;;;;24.51;36.16;100491.59;4463135;32;19984;-83
2022/07/19 06:26:09;;;;;;;;;;;;;;;24.85;34.35;100486.97;4462860;32;20033;-83
2022/07/19 06:28:54;;;;;;;;;;;;;;;25.18;33.73;100491.22;4468201;32;19992;-82
2022/07/19 06:31:22;;;;;;;;;;;;;;;25.60;32.81;100489.78;4451576;32;19985;-83
2022/07/19 06:33:49;;;;;;;;;;;;;;;26.04;32.48;100489.94;4462307;32;19990;-83
2022/07/19 06:36:16;;;;;;;;;;;;;;;26.51;32.81;100489.94;4464737;31;19995;-83
2022/07/19 06:38:44;;;;;;;;;;;;;;;26.80;31.60;100494.97;4471752;32;20329;-82
2022/07/19 06:41:12;;;;;;;;;;;;;;;27.27;30.73;100492.16;4448779;32;19977;-82
2022/07/19 06:43:39;;;;;;;;;;;;;;;27.56;29.55;100488.22;4462514;32;19991;-83
2022/07/19 06:46:06;;;;;;;;;;;;;;;27.97;28.26;100492.66;4462886;32;19977;-83
2022/07/19 06:48:33;;;;;;;;;;;;;;;28.35;28.36;100488.22;4462697;32;19980;-83
2022/07/19 06:51:00;;;;;;;;;;;;;;;28.65;28.37;100483.25;4462466;32;19985;-83
2022/07/19 06:53:28;;;;;;;;;;;;;;;28.84;28.33;100485.00;4459497;32;19988;-83
2022/07/19 06:55:54;;;;;;;;;;;;;;;29.28;28.24;100487.28;4447867;32;20053;-83
2022/07/19 06:58:21;;;;;;;;;;;;;;;29.33;26.11;100486.12;4460913;32;19994;-83
2022/07/19 07:00:48;;;;;;;;;;;;;;;29.76;25.92;100491.03;4471124;32;20473;-83
2022/07/19 07:03:17;;;;;;;;;;;;;;;29.36;24.79;100482.44;4462471;32;19985;-83
2022/07/19 07:05:45;;;;;;;;;;;;;;;30.07;26.30;100485.75;4448250;32;20000;-83
2022/07/19 07:08:12;;;;;;;;;;;;;;;30.16;27.30;100478.22;4471192;32;19991;-83
2022/07/19 07:10:39;;;;;;;;;;;;;;;30.43;26.13;100482.03;4447860;32;20722;-83
2022/07/19 07:13:06;;;;;;;;;;;;;;;30.42;24.38;100474.97;4469771;32;19964;-83
2022/07/19 07:15:33;;;;;;;;;;;;;;;30.33;27.98;100471.00;4463442;32;20881;-83
2022/07/19 07:18:00;;;;;;;;;;;;;;;30.61;25.04;100468.59;4462502;32;19989;-83
2022/07/19 07:20:27;;;;;;;;;;;;;;;30.87;25.13;100459.09;4097631;32;10003818;-83
2022/07/19 07:22:54;;;;;;;;;;;;;;;31.15;24.58;100458.31;4407403;32;20016;-83
2022/07/19 07:25:21;;;;;;;;;;;;;;;31.22;23.41;100465.03;4416242;32;19982;-84
2022/07/19 07:27:48;;;;;;;;;;;;;;;31.43;23.02;100463.75;4416207;32;19978;-83
2022/07/19 07:30:15;;;;;;;;;;;;;;;31.77;22.11;100461.66;4410528;32;20020;-84
2022/07/19 07:32:43;;;;;;;;;;;;;;;31.79;21.37;100464.25;4387234;32;19996;-83
2022/07/19 07:35:09;;;;;;;;;;;;;;;31.88;23.97;100459.22;4404133;32;20005;-83
2022/07/19 07:37:37;;;;;;;;;;;;;;;32.26;21.77;100458.59;4405012;32;20267;-85
2022/07/19 07:40:04;;;;;;;;;;;;;;;31.98;23.65;100453.28;4381569;32;20327;-83
2022/07/19 07:42:32;;;;;;;;;;;;;;;32.48;21.89;100447.34;4404076;32;20004;-82
2022/07/19 07:44:59;;;;;;;;;;;;;;;32.75;21.53;100452.72;4405731;32;19978;-82
2022/07/19 07:47:26;;;;;;;;;;;;;;;32.77;22.52;100457.97;4405204;32;20328;-83
2022/07/19 07:49:53;;;;;;;;;;;;;;;32.95;19.46;100455.88;4414644;32;20004;-80
2022/07/19 07:52:21;;;;;;;;;;;;;;;32.85;21.22;100450.28;4413593;32;19982;-80
2022/07/19 07:54:48;;;;;;;;;;;;;;;33.03;21.04;100458.97;4412533;32;19997;-80
2022/07/19 07:57:35;;;;;;;;;;;;;;;33.23;20.92;100449.53;4412518;32;20000;-81
2022/07/19 08:00:04;;;;;;;;;;;;;;;33.48;20.29;100454.06;4414508;32;20027;-82
2022/07/19 08:02:38;;;;;;;;;;;;;;;33.37;18.73;100456.63;4409558;32;20041;-81
2022/07/19 08:05:06;;;;;;;;;;;;;;;33.74;18.29;100455.81;4413539;32;20020;-81
2022/07/19 08:07:33;;;;;;;;;;;;;;;33.76;19.94;100459.25;4445150;32;19992;-81
2022/07/19 08:10:06;;;;;;;;;;;;;;;33.75;21.29;100456.66;4451386;32;19993;-81
2022/07/19 08:12:34;;;;;;;;;;;;;;;34.19;20.18;100450.81;4455345;32;20022;-81
2022/07/19 08:15:01;;;;;;;;;;;;;;;34.05;18.95;100450.97;4429890;32;19987;-82
2022/07/19 08:17:28;;;;;;;;;;;;;;;34.37;18.99;100450.44;4437613;32;19981;-82
2022/07/19 08:19:55;;;;;;;;;;;;;;;34.25;18.67;100446.81;4439617;32;19977;-83
2022/07/19 08:22:21;;;;;;;;;;;;;;;34.53;17.80;100447.50;4443907;32;19992;-82
2022/07/19 08:24:48;;;;;;;;;;;;;;;34.34;17.27;100447.97;4438276;32;19973;-83
2022/07/19 08:27:15;;;;;;;;;;;;;;;34.38;17.30;100449.47;4438875;32;20037;-82
2022/07/19 08:29:42;;;;;;;;;;;;;;;34.51;16.86;100447.56;4417105;32;20504;-83
2022/07/19 08:32:09;;;;;;;;;;;;;;;34.74;18.31;100450.41;4431230;32;20033;-80
2022/07/19 08:34:36;;;;;;;;;;;;;;;34.89;18.75;100449.25;4432659;32;19992;-82
2022/07/19 08:37:03;;;;;;;;;;;;;;;35.29;16.89;100446.19;4439935;32;20052;-83
2022/07/19 08:39:30;;;;;;;;;;;;;;;34.70;16.36;100445.25;4439206;32;19996;-83
2022/07/19 08:41:57;;;;;;;;;;;;;;;34.65;17.72;100436.69;4389060;32;19993;-83
2022/07/19 08:44:24;;;;;;;;;;;;;;;34.89;17.90;100443.87;4445358;32;19997;-84
2022/07/19 08:46:51;;;;;;;;;;;;;;;34.86;17.43;100441.41;4446331;32;19996;-85
2022/07/19 08:49:18;;;;;;;;;;;;;;;34.80;16.65;100439.19;4432087;32;19999;-86
2022/07/19 08:51:47;;;;;;;;;;;;;;;34.91;17.59;100436.53;4431923;32;20009;-84
2022/07/19 08:54:15;;;;;;;;;;;;;;;35.42;16.38;100441.59;4432213;32;20004;-84
2022/07/19 08:59:27;;;;;;;;;;;;;;;35.20;18.52;100428.06;4430979;32;19973;-83
2022/07/19 09:01:54;;;;;;;;;;;;;;;35.42;17.58;100430.81;4438928;32;20017;-85
2022/07/19 09:04:28;;;;;;;;;;;;;;;35.35;16.53;100432.25;4430378;32;20331;-83
2022/07/19 09:06:56;;;;;;;;;;;;;;;35.76;16.21;100433.53;4430447;32;20079;-84
2022/07/19 09:09:26;;;;;;;;;;;;;;;35.29;19.63;100427.34;4438772;32;20045;-82
2022/07/19 09:11:54;;;;;;;;;;;;;;;35.30;17.88;100427.25;4430147;32;19973;-82
2022/07/19 09:14:23;;;;;;;;;;;;;;;35.24;17.04;100424.19;4435345;32;19985;-82
2022/07/19 09:16:49;;;;;;;;;;;;;;;35.97;15.89;100421.03;4450176;32;20001;-82
2022/07/19 09:19:16;;;;;;;;;;;;;;;35.56;17.23;100427.06;4445925;32;20378;-83
2022/07/19 09:21:57;;;;;;;;;;;;;;;35.39;16.92;100425.69;4433694;32;19989;-84
2022/07/19 09:24:24;;;;;;;;;;;;;;;35.16;18.31;100424.75;4430698;32;20575;-84
2022/07/19 09:27:05;;;;;;;;;;;;;;;35.34;17.81;100425.16;4435565;32;19974;-84
2022/07/19 09:29:33;;;;;;;;;;;;;;;35.34;18.47;100420.63;4445451;32;19981;-84
2022/07/19 09:32:01;;;;;;;;;;;;;;;35.29;18.67;100421.97;4445631;32;20004;-85
2022/07/19 09:34:29;;;;;;;;;;;;;;;35.27;18.37;100426.63;4441098;32;20019;-86
2022/07/19 09:37:09;;;;;;;;;;;;;;;35.46;17.29;100426.06;4445269;32;20004;-84
2022/07/19 09:39:39;;;;;;;;;;;;;;;35.65;18.12;100425.47;4439230;32;20019;-83
2022/07/19 09:42:06;;;;;;;;;;;;;;;35.48;18.65;100419.53;4441297;32;19996;-83
2022/07/19 09:44:33;;;;;;;;;;;;;;;36.05;16.31;100418.59;4432491;32;19978;-85
2022/07/19 09:47:00;;;;;;;;;;;;;;;35.76;16.37;100420.06;4432418;32;19982;-82
2022/07/19 09:49:31;;;;;;;;;;;;;;;36.16;16.80;100416.87;4431354;32;20039;-84
2022/07/19 09:51:58;;;;;;;;;;;;;;;36.03;16.55;100412.50;4438639;32;19981;-87
2022/07/19 09:54:26;;;;;;;;;;;;;;;36.29;16.16;100421.13;4432469;32;19985;-83
2022/07/19 09:56:53;;;;;;;;;;;;;;;35.98;16.79;100406.56;4432679;32;20000;-84
2022/07/19 09:59:21;;;;;;;;;;;;;;;36.79;15.72;100412.50;4430723;32;20449;-87
2022/07/19 10:01:49;;;;;;;;;;;;;;;36.59;16.76;100405.25;4439717;32;20877;-85
2022/07/19 10:04:18;;;;;;;;;;;;;;;36.33;16.12;100405.56;4431367;32;20326;-87
2022/07/19 10:06:45;;;;;;;;;;;;;;;36.42;17.04;100402.09;4432211;32;19982;-87
2022/07/19 10:09:13;;;;;;;;;;;;;;;36.28;17.92;100407.75;4428636;32;20052;-86
2022/07/19 10:11:41;;;;;;;;;;;;;;;36.38;17.04;100408.75;4441316;32;19985;-85
2022/07/19 10:14:08;;;;;;;;;;;;;;;36.67;15.45;100408.16;4446510;32;19977;-85
2022/07/19 10:16:51;;;;;;;;;;;;;;;36.40;17.53;100404.06;4448052;32;19987;-83
2022/07/19 10:19:34;;;;;;;;;;;;;;;36.56;15.42;100400.97;4441414;32;19973;-84
2022/07/19 10:22:01;;;;;;;;;;;;;;;36.58;17.21;100398.16;4432606;32;20029;-84
2022/07/19 10:24:43;;;;;;;;;;;;;;;36.36;16.73;100399.91;4417472;32;19978;-84
2022/07/19 10:27:10;;;;;;;;;;;;;;;36.12;17.24;100401.94;4430685;32;20000;-86
2022/07/19 10:29:37;;;;;;;;;;;;;;;36.34;15.71;100391.06;4437594;32;20399;-84
2022/07/19 10:32:09;;;;;;;;;;;;;;;36.43;15.95;100390.31;4437975;32;20322;-85
2022/07/19 10:34:36;;;;;;;;;;;;;;;36.26;15.71;100390.88;4414149;32;19973;-86
2022/07/19 10:37:04;;;;;;;;;;;;;;;36.84;15.27;100388.69;4439336;32;20782;-84
2022/07/19 10:39:33;;;;;;;;;;;;;;;36.75;15.59;100392.16;4439058;32;20056;-84
2022/07/19 10:42:09;;;;;;;;;;;;;;;36.60;15.92;100385.38;4431268;32;20036;-84
2022/07/19 10:44:56;;;;;;;;;;;;;;;36.38;15.89;100381.78;4438713;32;20954;-84
2022/07/19 10:47:32;;;;;;;;;;;;;;;36.98;16.27;100380.31;4436189;32;19981;-83
2022/07/19 10:50:15;;;;;;;;;;;;;;;37.05;16.19;100374.34;4441776;32;19981;-85
2022/07/19 10:52:42;;;;;;;;;;;;;;;37.19;15.41;100379.44;4446109;32;20330;-85
2022/07/19 10:55:20;;;;;;;;;;;;;;;37.30;16.19;100378.47;4447645;32;19969;-85
2022/07/19 10:57:48;;;;;;;;;;;;;;;37.26;15.49;100372.50;4438489;32;20372;-83
2022/07/19 11:00:20;;;;;;;;;;;;;;;37.43;15.96;100374.59;4420912;32;20608;-85
2022/07/19 11:02:49;;;;;;;;;;;;;;;36.90;15.51;100365.72;4437736;32;20027;-88
2022/07/19 11:05:26;;;;;;;;;;;;;;;36.89;15.45;100370.28;4444097;32;19991;-83
2022/07/19 11:07:56;;;;;;;;;;;;;;;36.51;15.61;100360.91;4438471;32;19996;-87
2022/07/19 11:10:23;;;;;;;;;;;;;;;36.83;16.67;100365.41;4432331;32;20020;-86
2022/07/19 11:12:50;;;;;;;;;;;;;;;36.09;15.72;100355.37;4433311;32;20005;-86
2022/07/19 11:15:17;;;;;;;;;;;;;;;36.57;15.77;100358.66;4434646;32;19965;-81
2022/07/19 11:17:53;;;;;;;;;;;;;;;36.74;15.54;100355.37;4430923;32;20053;-85
2022/07/19 11:20:24;;;;;;;;;;;;;;;36.75;16.24;100351.69;4430724;32;19992;-81
2022/07/19 11:22:51;;;;;;;;;;;;;;;37.18;15.73;100353.44;4430781;32;19997;-82
2022/07/19 11:25:41;;;;;;;;;;;;;;;37.03;15.75;100349.34;4429592;32;19977;-81
2022/07/19 11:28:19;;;;;;;;;;;;;;;36.67;15.14;100344.28;4427963;32;19982;-80
2022/07/19 11:30:46;;;;;;;;;;;;;;;35.33;17.58;100334.63;4427321;32;19989;-82
2022/07/19 11:33:15;;;;;;;;;;;;;;;35.73;19.55;100332.28;4435597;32;20000;-82
2022/07/19 11:35:56;;;;;;;;;;;;;;;35.97;17.52;100332.09;4428538;32;20036;-81
2022/07/19 11:38:23;;;;;;;;;;;;;;;35.50;17.01;100328.72;4424613;32;20334;-81
2022/07/19 11:40:50;;;;;;;;;;;;;;;36.07;16.00;100322.31;4425019;32;19985;-81
2022/07/19 11:43:16;;;;;;;;;;;;;;;35.68;17.58;100328.25;4420666;32;19989;-81
2022/07/19 11:45:48;;;;;;;;;;;;;;;35.82;18.04;100320.75;4119310;32;10003810;-81
2022/07/19 11:48:26;;;;;;;;;;;;;;;36.11;17.22;100313.97;4422018;32;19989;-81
2022/07/19 11:51:06;;;;;;;;;;;;;;;36.74;16.05;100315.78;4426316;32;20248;-83
2022/07/19 11:53:33;;;;;;;;;;;;;;;36.81;15.31;100313.41;4425269;32;20001;-81
2022/07/19 11:56:01;;;;;;;;;;;;;;;36.47;17.14;100305.47;4422275;32;19989;-81
2022/07/19 11:58:28;;;;;;;;;;;;;;;36.76;16.58;100304.84;4426634;32;20351;-82
2022/07/19 12:01:04;;;;;;;;;;;;;;;36.97;15.02;100308.37;4424356;32;20009;-82
2022/07/19 12:03:31;;;;;;;;;;;;;;;36.86;16.10;100294.97;4432437;32;20012;-81
2022/07/19 12:06:02;;;;;;;;;;;;;;;37.08;16.40;100304.78;4432773;32;20575;-81
2022/07/19 12:08:35;;;;;;;;;;;;;;;36.95;15.77;100298.69;4421753;32;19995;-82
2022/07/19 12:11:14;;;;;;;;;;;;;;;36.91;16.48;100297.25;4422228;32;20724;-81
2022/07/19 12:13:41;;;;;;;;;;;;;;;37.36;14.72;100295.06;4427075;32;19974;-82
2022/07/19 12:16:14;;;;;;;;;;;;;;;37.11;15.23;100288.31;4424521;32;19985;-81
2022/07/19 12:18:46;;;;;;;;;;;;;;;36.22;16.57;100285.13;4423918;32;19973;-83
2022/07/19 12:21:16;;;;;;;;;;;;;;;36.57;17.54;100293.91;4431409;32;20031;-81
2022/07/19 12:24:03;;;;;;;;;;;;;;;36.28;17.29;100283.72;4430388;32;20322;-80
2022/07/19 12:26:30;;;;;;;;;;;;;;;35.40;17.67;100281.97;4433693;32;20000;-81
2022/07/19 12:29:18;;;;;;;;;;;;;;;35.16;18.15;100285.69;4436587;32;19974;-80
2022/07/19 12:31:46;;;;;;;;;;;;;;;34.94;19.53;100282.91;4436681;32;19985;-81
2022/07/19 12:34:14;;;;;;;;;;;;;;;35.07;18.18;100283.72;4441623;32;19989;-80
2022/07/19 12:36:41;;;;;;;;;;;;;;;35.42;17.35;100280.03;4425846;32;19989;-80
2022/07/19 12:39:17;;;;;;;;;;;;;;;35.39;18.12;100280.28;4442746;32;20318;-80
2022/07/19 12:42:01;;;;;;;;;;;;;;;35.47;17.26;100277.81;4441195;32;19966;-81
2022/07/19 12:44:27;;;;;;;;;;;;;;;36.24;16.31;100282.28;4437045;32;19995;-81
2022/07/19 12:46:55;;;;;;;;;;;;;;;36.49;15.77;100279.22;4440954;32;20004;-81
2022/07/19 12:49:43;;;;;;;;;;;;;;;35.48;17.12;100279.50;4437708;32;20502;-79